Time;durP1;ratioP1;P1;durP2;ratioP2;P2;SDS_P1;SDS_P2;PMS_P1;PMS_P2;Temp;Humidity;BMP_temperature;BMP_pressure;BME280_temperature;BME280_humidity;BME280_pressure;Samples;Min_cycle;Max_cycle;Signal;HPM_P1;HPM_P2
2021/06/21 00:00:01;;;;;;;11.88;4.38;;;;;;;19.65;73.13;100550.75;5055686;28;20460;-55
2021/06/21 00:02:28;;;;;;;8.65;3.92;;;;;;;19.68;72.93;100554.84;5055302;28;20064;-54
2021/06/21 00:04:56;;;;;;;9.10;3.67;;;;;;;19.68;73.23;100549.31;5055963;28;20495;-55
2021/06/21 00:07:24;;;;;;;8.43;4.22;;;;;;;19.70;72.98;100547.81;5055987;28;20083;-55
2021/06/21 00:09:51;;;;;;;7.47;3.70;;;;;;;19.66;73.18;100554.31;5055601;28;20071;-55
2021/06/21 00:12:19;;;;;;;10.57;4.50;;;;;;;19.51;73.00;100548.25;5054623;28;20049;-54
2021/06/21 00:14:47;;;;;;;13.13;4.78;;;;;;;19.36;74.08;100540.50;5055368;28;20037;-53
2021/06/21 00:17:16;;;;;;;7.78;3.95;;;;;;;19.19;74.17;100541.44;5054220;28;20056;-50
2021/06/21 00:19:44;;;;;;;7.53;4.28;;;;;;;19.15;74.89;100544.06;5055225;28;20033;-51
2021/06/21 00:22:14;;;;;;;11.38;4.80;;;;;;;19.21;74.81;100544.66;5055240;28;20095;-50
2021/06/21 00:24:46;;;;;;;9.18;4.35;;;;;;;19.22;74.69;100528.91;5055336;28;20516;-53
2021/06/21 00:27:14;;;;;;;10.65;4.47;;;;;;;19.22;74.46;100528.91;5055594;28;20045;-55
2021/06/21 00:29:41;;;;;;;9.95;4.68;;;;;;;19.06;75.03;100531.44;5054090;28;20099;-51
2021/06/21 00:32:10;;;;;;;13.25;5.35;;;;;;;18.97;75.77;100538.94;5055871;28;20499;-50
2021/06/21 00:34:37;;;;;;;10.75;4.95;;;;;;;18.85;75.77;100523.06;5055368;28;20045;-56
2021/06/21 00:37:05;;;;;;;10.82;5.43;;;;;;;18.78;75.93;100515.31;5055363;28;20501;-52
2021/06/21 00:39:33;;;;;;;14.55;5.30;;;;;;;18.74;76.21;100517.91;5054997;28;20041;-54
2021/06/21 00:42:00;;;;;;;11.98;5.22;;;;;;;18.67;75.91;100523.13;5055454;28;20075;-53
2021/06/21 00:44:28;;;;;;;10.95;4.90;;;;;;;18.58;76.11;100514.06;5054627;28;20052;-52
2021/06/21 00:46:55;;;;;;;12.07;5.32;;;;;;;18.53;76.14;100512.28;5055054;28;20040;-54
2021/06/21 00:49:23;;;;;;;12.32;5.63;;;;;;;18.46;75.90;100509.22;5055432;28;20095;-55
2021/06/21 00:51:52;;;;;;;16.23;5.70;;;;;;;18.44;75.79;100502.41;5054577;28;20045;-52
2021/06/21 00:54:20;;;;;;;12.32;5.22;;;;;;;18.47;76.07;100512.78;5055004;28;20500;-54
2021/06/21 00:56:49;;;;;;;10.68;4.90;;;;;;;18.52;75.72;100507.91;5054962;28;20041;-55
2021/06/21 00:59:16;;;;;;;8.82;5.45;;;;;;;18.43;75.93;100509.88;5054756;28;20033;-54
2021/06/21 01:01:44;;;;;;;10.10;4.78;;;;;;;18.45;76.31;100521.41;5054623;28;20049;-51
2021/06/21 01:04:12;;;;;;;10.45;5.20;;;;;;;18.43;75.50;100506.31;5054661;28;20549;-54
2021/06/21 01:06:39;;;;;;;9.70;4.93;;;;;;;18.26;76.22;100518.22;5054116;28;20049;-54
2021/06/21 01:09:07;;;;;;;12.80;5.88;;;;;;;18.16;75.88;100521.28;5055622;28;20098;-53
2021/06/21 01:12:02;;;;;;;13.30;5.97;;;;;;;18.18;76.64;100524.53;5055566;28;20556;-57
2021/06/21 01:14:44;;;;;;;11.70;5.85;;;;;;;18.12;76.89;100528.59;5054279;28;20048;-55
2021/06/21 01:17:19;;;;;;;10.82;5.60;;;;;;;18.08;76.41;100517.41;5053678;28;20041;-55
2021/06/21 01:20:21;;;;;;;11.63;5.05;;;;;;;18.24;76.52;100518.53;5054189;28;20110;-56
2021/06/21 01:23:10;;;;;;;8.85;5.18;;;;;;;18.24;76.34;100513.00;4992569;28;20062;-55
2021/06/21 01:26:18;;;;;;;10.70;5.60;;;;;;;18.15;77.06;100509.44;4992914;28;20050;-55
2021/06/21 01:29:04;;;;;;;9.63;4.95;;;;;;;18.22;77.03;100512.53;4934807;29;20438;-51
2021/06/21 01:32:05;;;;;;;10.52;5.45;;;;;;;18.35;76.99;100526.44;4935155;29;20110;-50
2021/06/21 01:34:34;;;;;;;12.32;5.85;;;;;;;18.33;77.04;100537.00;4934378;29;20510;-51
2021/06/21 01:37:03;;;;;;;8.98;4.78;;;;;;;18.36;77.15;100537.16;4918496;29;20063;-52
2021/06/21 01:39:33;;;;;;;12.80;5.68;;;;;;;18.29;77.02;100545.94;4934973;29;20048;-49
2021/06/21 01:42:08;;;;;;;9.65;5.30;;;;;;;18.15;77.56;100544.50;4934773;29;20103;-52
2021/06/21 01:44:45;;;;;;;8.55;5.13;;;;;;;18.04;77.44;100538.50;4934539;29;20566;-55
2021/06/21 01:47:13;;;;;;;;;;;;;;;17.98;77.67;100545.31;4919296;29;20083;-51
2021/06/21 01:49:45;;;;;;;11.85;6.00;;;;;;;18.00;78.06;100541.09;4919337;29;20381;-53
2021/06/21 01:52:13;;;;;;;9.20;5.28;;;;;;;17.84;77.95;100546.28;4935259;29;20109;-55
2021/06/21 01:54:45;;;;;;;9.32;4.30;;;;;;;17.74;78.50;100549.31;4934906;29;20044;-54
2021/06/21 01:57:13;;;;;;;10.45;5.30;;;;;;;17.70;78.49;100540.06;4935415;29;20047;-51
2021/06/21 01:59:42;;;;;;;11.50;6.10;;;;;;;17.72;78.09;100534.25;4967268;28;20117;-54
2021/06/21 02:02:10;;;;;;;8.20;5.43;;;;;;;17.71;77.87;100521.63;4976881;28;20046;-57
2021/06/21 02:04:38;;;;;;;10.82;6.13;;;;;;;17.48;78.46;100524.50;4976123;28;20434;-53
2021/06/21 02:07:07;;;;;;;10.85;6.63;;;;;;;17.14;79.18;100520.53;5054514;28;20101;-53
2021/06/21 02:09:35;;;;;;;9.20;5.03;;;;;;;17.11;79.01;100512.13;5053100;28;20053;-51
2021/06/21 02:12:03;;;;;;;10.23;6.03;;;;;;;17.18;79.34;100512.47;5053037;28;20037;-53
2021/06/21 02:14:31;;;;;;;11.30;4.93;;;;;;;17.22;78.42;100507.91;5051548;28;20045;-52
2021/06/21 02:16:59;;;;;;;9.00;6.28;;;;;;;17.20;78.60;100502.75;5051707;28;20553;-51
2021/06/21 02:19:30;;;;;;;9.98;6.60;;;;;;;17.28;78.25;100505.84;5051269;28;20407;-52
2021/06/21 02:21:59;;;;;;;9.25;6.10;;;;;;;17.13;78.11;100509.84;5051794;28;20036;-52
2021/06/21 02:24:27;;;;;;;8.50;5.75;;;;;;;17.09;78.98;100508.88;5051432;28;20072;-55
2021/06/21 02:26:54;;;;;;;9.45;5.70;;;;;;;17.34;78.31;100516.38;5054338;28;20036;-53
2021/06/21 02:29:23;;;;;;;9.35;6.03;;;;;;;17.50;77.53;100521.44;5053768;28;20045;-52
2021/06/21 02:31:51;;;;;;;10.00;6.05;;;;;;;17.37;77.86;100528.69;5054023;28;20045;-53
2021/06/21 02:34:20;;;;;;;9.30;5.63;;;;;;;17.48;77.78;100521.75;5054231;28;20048;-49
2021/06/21 02:36:48;;;;;;;9.05;5.88;;;;;;;17.41;76.96;100526.91;5055121;28;20072;-51
2021/06/21 02:39:17;;;;;;;10.85;6.10;;;;;;;17.14;77.45;100526.03;5054715;28;20049;-51
2021/06/21 02:41:45;;;;;;;9.15;5.70;;;;;;;16.94;79.15;100513.69;5054778;28;20037;-51
2021/06/21 02:44:13;;;;;;;8.90;5.72;;;;;;;17.14;78.50;100522.47;5053746;28;20036;-51
2021/06/21 02:46:40;;;;;;;9.38;6.10;;;;;;;17.39;77.41;100524.50;5055841;28;20045;-54
2021/06/21 02:49:08;;;;;;;11.75;6.35;;;;;;;17.42;76.77;100517.53;5057238;28;20829;-50
2021/06/21 02:52:00;;;;;;;8.88;5.97;;;;;;;17.34;76.64;100515.56;5057666;28;20106;-51
2021/06/21 02:54:35;;;;;;;9.45;6.13;;;;;;;17.22;76.54;100516.19;5058713;28;20558;-54
2021/06/21 02:57:24;;;;;;;9.73;5.80;;;;;;;17.19;76.81;100525.88;5058155;28;20115;-54
2021/06/21 02:59:52;;;;;;;8.02;5.47;;;;;;;17.16;76.78;100531.22;5058161;28;20036;-50
2021/06/21 03:02:21;;;;;;;7.75;5.78;;;;;;;17.28;76.79;100533.38;5058583;28;20041;-51
2021/06/21 03:04:50;;;;;;;7.32;5.35;;;;;;;16.83;76.97;100534.34;5057555;28;20049;-52
2021/06/21 03:07:20;;;;;;;7.45;5.35;;;;;;;16.72;78.32;100528.28;5057245;28;20037;-54
2021/06/21 03:09:48;;;;;;;8.63;5.43;;;;;;;16.67;77.75;100535.84;5057077;28;20041;-56
2021/06/21 03:12:20;;;;;;;7.32;4.90;;;;;;;16.60;78.10;100520.63;5056330;28;20045;-51
2021/06/21 03:14:49;;;;;;;6.75;4.60;;;;;;;16.60;78.08;100508.81;5056693;28;20050;-54
2021/06/21 03:17:18;;;;;;;9.57;5.00;;;;;;;16.45;78.21;100493.53;5056300;28;20103;-53
2021/06/21 03:19:46;;;;;;;8.45;4.70;;;;;;;16.44;78.85;100500.16;5057645;28;20075;-52
2021/06/21 03:22:16;;;;;;;7.07;4.60;;;;;;;16.49;78.86;100508.25;5056100;28;20041;-49
2021/06/21 03:24:43;;;;;;;7.57;4.55;;;;;;;16.44;78.79;100499.34;5056385;28;20044;-50
2021/06/21 03:27:11;;;;;;;5.55;4.00;;;;;;;16.35;79.11;100491.03;5055842;28;20461;-54
2021/06/21 03:29:39;;;;;;;5.68;4.15;;;;;;;16.41;78.87;100489.78;5056834;28;20054;-52
2021/06/21 03:32:30;;;;;;;6.72;4.13;;;;;;;16.40;78.10;100488.16;5055581;28;20053;-53
2021/06/21 03:35:00;;;;;;;4.70;3.50;;;;;;;16.45;78.55;100493.53;5044392;28;20099;-55
2021/06/21 03:37:29;;;;;;;6.20;4.00;;;;;;;16.47;77.90;100487.72;5054045;28;20070;-56
2021/06/21 03:39:57;;;;;;;4.97;3.75;;;;;;;16.23;78.35;100493.56;5055568;28;20041;-55
2021/06/21 03:42:25;;;;;;;6.38;4.07;;;;;;;16.08;79.92;100473.56;5054942;28;20049;-58
2021/06/21 03:44:55;;;;;;;5.20;3.70;;;;;;;16.18;79.30;100472.50;5055347;28;20098;-52
2021/06/21 03:47:23;;;;;;;7.13;3.83;;;;;;;16.15;78.58;100460.19;5055449;28;20044;-55
2021/06/21 03:49:51;;;;;;;5.68;3.70;;;;;;;16.01;79.26;100458.66;5058076;28;20045;-49
2021/06/21 03:52:20;;;;;;;6.25;3.97;;;;;;;15.77;79.59;100468.84;5057941;28;20091;-55
2021/06/21 03:54:48;;;;;;;4.30;3.40;;;;;;;15.66;80.41;100455.66;5054626;28;20095;-52
2021/06/21 03:57:15;;;;;;;4.85;3.22;;;;;;;15.75;80.50;100443.63;5054837;28;20472;-54
2021/06/21 03:59:43;;;;;;;5.53;3.42;;;;;;;15.89;79.66;100440.78;5053336;28;20045;-51
2021/06/21 04:02:11;;;;;;;6.07;3.20;;;;;;;15.70;79.17;100451.97;5054817;28;20071;-53
2021/06/21 04:04:39;;;;;;;3.75;2.95;;;;;;;15.72;79.97;100457.97;5054862;28;20044;-52
2021/06/21 04:07:07;;;;;;;4.30;2.92;;;;;;;15.89;79.05;100456.47;5054854;28;20099;-56
2021/06/21 04:09:34;;;;;;;5.47;3.17;;;;;;;15.80;78.50;100456.41;5054462;28;20294;-51
2021/06/21 04:12:02;;;;;;;5.03;2.90;;;;;;;15.72;78.98;100455.22;5054797;28;20041;-52
2021/06/21 04:14:30;;;;;;;2.72;2.42;;;;;;;15.86;79.06;100459.84;5054322;28;20458;-53
2021/06/21 04:16:57;;;;;;;3.60;2.30;;;;;;;15.83;78.24;100471.47;5054673;28;20075;-50
2021/06/21 04:19:26;;;;;;;2.95;2.35;;;;;;;15.79;78.42;100481.47;5055351;28;20053;-53
2021/06/21 04:21:53;;;;;;;2.60;2.40;;;;;;;15.70;77.83;100471.19;5054566;28;20049;-51
2021/06/21 04:24:21;;;;;;;2.88;2.20;;;;;;;15.63;77.73;100476.28;5054721;28;20037;-52
2021/06/21 04:26:49;;;;;;;3.22;2.05;;;;;;;15.37;79.07;100477.97;5054649;28;20036;-52
2021/06/21 04:29:17;;;;;;;3.10;2.10;;;;;;;15.52;79.22;100481.22;5054265;28;20045;-53
2021/06/21 04:31:49;;;;;;;3.35;2.33;;;;;;;15.58;78.55;100483.84;5054377;28;20585;-52
2021/06/21 04:34:19;;;;;;;3.65;2.47;;;;;;;15.80;78.42;100485.81;5054839;28;20419;-52
2021/06/21 04:36:46;;;;;;;3.25;2.03;;;;;;;16.00;77.79;100485.34;5054896;28;20045;-54
2021/06/21 04:39:14;;;;;;;2.30;2.10;;;;;;;16.17;77.25;100490.13;5054794;28;20041;-53
2021/06/21 04:41:42;;;;;;;2.92;2.20;;;;;;;16.13;76.52;100478.94;5054951;28;20048;-53
2021/06/21 04:44:09;;;;;;;4.90;2.50;;;;;;;16.09;75.63;100486.22;5054011;28;20106;-52
2021/06/21 04:46:37;;;;;;;2.60;2.15;;;;;;;15.88;76.79;100490.59;5055339;28;20560;-50
2021/06/21 04:49:11;;;;;;;4.70;1.88;;;;;;;15.80;76.60;100492.13;5054893;28;20045;-53
2021/06/21 04:51:41;;;;;;;2.33;2.10;;;;;;;15.80;76.85;100496.81;5053701;28;20048;-49
2021/06/21 04:54:09;;;;;;;2.60;2.13;;;;;;;15.95;76.96;100493.72;5054827;28;20094;-54
2021/06/21 04:56:37;;;;;;;4.07;2.25;;;;;;;16.01;76.11;100500.69;5054715;28;20053;-52
2021/06/21 04:59:05;;;;;;;1.90;1.80;;;;;;;15.72;76.23;100496.41;5054131;28;20037;-55
2021/06/21 05:01:33;;;;;;;2.25;1.80;;;;;;;15.72;77.69;100504.66;5054586;28;20095;-53
2021/06/21 05:04:02;;;;;;;1.88;1.60;;;;;;;15.83;77.02;100501.69;5054868;28;20407;-54
2021/06/21 05:06:29;;;;;;;1.95;1.77;;;;;;;15.81;76.57;100513.00;5054566;28;20041;-52
2021/06/21 05:08:57;;;;;;;3.83;1.67;;;;;;;15.59;76.47;100513.75;5054498;28;20045;-50
2021/06/21 05:11:25;;;;;;;2.95;1.73;;;;;;;15.36;78.02;100515.59;5054261;28;20052;-52
2021/06/21 05:13:52;;;;;;;2.22;1.73;;;;;;;15.42;78.27;100508.91;5054104;28;20056;-53
2021/06/21 05:16:20;;;;;;;4.20;1.73;;;;;;;15.42;77.52;100513.59;5054070;28;20130;-52
2021/06/21 05:18:48;;;;;;;2.30;1.40;;;;;;;15.47;77.77;100517.03;5054413;28;20052;-51
2021/06/21 05:21:15;;;;;;;1.63;1.52;;;;;;;15.49;77.73;100522.19;5054544;28;20037;-49
2021/06/21 05:23:43;;;;;;;2.15;1.92;;;;;;;15.27;77.43;100523.78;5053976;28;20033;-55
2021/06/21 05:26:11;;;;;;;1.50;1.40;;;;;;;15.19;78.38;100529.97;5054101;28;20083;-53
2021/06/21 05:28:38;;;;;;;2.08;1.52;;;;;;;15.30;78.19;100527.84;5053284;28;20099;-56
2021/06/21 05:31:06;;;;;;;3.80;1.60;;;;;;;15.45;78.12;100534.94;5053993;28;20029;-56
2021/06/21 05:33:34;;;;;;;1.88;1.48;;;;;;;15.64;76.83;100524.59;5054113;28;20037;-52
2021/06/21 05:36:02;;;;;;;1.55;1.35;;;;;;;15.60;76.57;100531.84;5052640;28;20041;-56
2021/06/21 05:38:29;;;;;;;3.45;1.90;;;;;;;15.59;76.85;100529.41;5053608;28;20087;-55
2021/06/21 05:40:57;;;;;;;1.63;1.50;;;;;;;15.69;76.78;100527.25;5051183;28;20095;-56
2021/06/21 05:43:24;;;;;;;2.25;1.73;;;;;;;15.79;76.52;100526.22;5053104;28;20049;-56
2021/06/21 05:45:53;;;;;;;3.80;2.17;;;;;;;15.84;76.21;100526.09;5065323;28;20041;-50
2021/06/21 05:48:21;;;;;;;5.65;2.10;;;;;;;15.85;76.84;100521.41;5040698;28;20048;-52
2021/06/21 05:50:50;;;;;;;5.47;2.10;;;;;;;15.83;75.99;100526.44;5048686;28;20530;-56
2021/06/21 05:53:18;;;;;;;2.38;1.80;;;;;;;15.80;76.44;100519.59;5051883;28;20041;-54
2021/06/21 05:55:46;;;;;;;3.38;2.00;;;;;;;15.86;76.54;100523.84;5053049;28;20091;-56
2021/06/21 05:58:13;;;;;;;6.82;3.47;;;;;;;15.86;76.37;100517.56;5052488;28;20083;-54
2021/06/21 06:00:41;;;;;;;4.70;2.55;;;;;;;15.87;76.51;100516.41;5052926;28;20049;-53
2021/06/21 06:03:14;;;;;;;2.14;1.94;;;;;;;15.77;76.33;100521.03;4910032;28;10001389;-52
2021/06/21 06:05:42;;;;;;;2.28;1.92;;;;;;;15.63;76.73;100511.97;4694089;28;10000209;-55
2021/06/21 06:08:10;;;;;;;3.13;2.17;;;;;;;15.54;77.33;100527.59;5050502;28;20041;-54
2021/06/21 06:10:38;;;;;;;3.47;2.08;;;;;;;15.52;77.44;100518.84;5050262;28;20071;-56
2021/06/21 06:13:07;;;;;;;2.17;1.98;;;;;;;15.63;77.80;100522.16;5048483;28;20054;-53
2021/06/21 06:15:34;;;;;;;2.03;1.92;;;;;;;15.45;77.31;100519.25;5049634;28;20049;-57
2021/06/21 06:18:02;;;;;;;4.55;2.47;;;;;;;15.48;77.73;100520.56;5050220;28;20590;-57
2021/06/21 06:20:30;;;;;;;2.75;2.00;;;;;;;15.47;77.56;100525.25;5048992;28;20103;-53
2021/06/21 06:22:58;;;;;;;4.82;2.22;;;;;;;15.46;77.62;100520.06;5049798;28;20110;-51
2021/06/21 06:25:26;;;;;;;4.18;1.90;;;;;;;15.48;78.00;100526.88;5049737;28;20051;-55
2021/06/21 06:27:54;;;;;;;2.00;1.83;;;;;;;15.53;77.50;100542.44;5049819;28;20044;-54
2021/06/21 06:30:22;;;;;;;2.97;1.88;;;;;;;15.43;77.41;100537.16;5050224;28;20044;-52
2021/06/21 06:32:50;;;;;;;1.88;1.77;;;;;;;15.32;77.82;100537.38;5049789;28;20037;-52
2021/06/21 06:35:18;;;;;;;2.65;1.88;;;;;;;15.36;77.96;100537.56;5050012;28;20053;-50
2021/06/21 06:37:48;;;;;;;3.30;2.15;;;;;;;15.25;78.59;100537.00;5050380;28;20514;-54
2021/06/21 06:40:17;;;;;;;3.55;2.10;;;;;;;15.22;77.97;100537.56;5049352;28;20056;-53
2021/06/21 06:42:46;;;;;;;2.60;1.90;;;;;;;15.27;79.02;100534.75;5050027;28;20037;-52
2021/06/21 06:45:14;;;;;;;3.03;1.90;;;;;;;15.26;78.30;100533.09;5051247;28;20052;-53
2021/06/21 06:47:42;;;;;;;2.45;1.65;;;;;;;15.30;78.66;100539.63;5051330;28;20045;-55
2021/06/21 06:50:10;;;;;;;4.88;2.10;;;;;;;15.29;77.99;100548.16;5050624;28;20675;-54
2021/06/21 06:52:38;;;;;;;2.67;2.00;;;;;;;15.27;78.34;100544.91;5048696;28;20069;-51
2021/06/21 06:57:37;;;;;;;2.17;1.92;;;;;;;15.19;78.59;100559.34;5051216;28;20553;-52
2021/06/21 07:00:12;;;;;;;2.03;1.77;;;;;;;15.02;78.79;100559.97;5051425;28;20087;-53
2021/06/21 07:02:44;;;;;;;2.05;1.67;;;;;;;15.15;79.25;100561.06;5051364;28;20052;-55
2021/06/21 07:05:13;;;;;;;3.53;2.17;;;;;;;15.24;78.47;100568.28;5049613;28;20098;-55
2021/06/21 07:07:40;;;;;;;2.80;1.80;;;;;;;15.15;78.43;100564.63;5050767;28;20045;-50
2021/06/21 07:10:09;;;;;;;1.75;1.50;;;;;;;15.13;78.66;100577.84;5050166;28;20032;-57
2021/06/21 07:12:36;;;;;;;1.90;1.58;;;;;;;15.16;78.89;100582.72;5053358;28;20049;-54
2021/06/21 07:15:05;;;;;;;3.03;1.77;;;;;;;15.15;78.87;100591.25;5051677;28;20522;-57
2021/06/21 07:17:32;;;;;;;2.25;1.52;;;;;;;15.06;78.87;100588.41;5052249;28;20052;-51
2021/06/21 07:20:00;;;;;;;2.42;1.80;;;;;;;15.11;79.33;100586.38;5053384;28;20048;-56
2021/06/21 07:22:28;;;;;;;1.55;1.45;;;;;;;15.07;79.17;100599.06;5052636;28;20045;-54
2021/06/21 07:24:56;;;;;;;2.30;1.60;;;;;;;15.00;79.47;100601.41;5052153;28;20064;-54
2021/06/21 07:27:25;;;;;;;5.72;1.67;;;;;;;15.07;79.40;100604.56;5051526;28;20041;-54
2021/06/21 07:29:54;;;;;;;1.55;1.40;;;;;;;15.15;79.21;100597.56;5051135;28;20416;-53
2021/06/21 07:32:25;;;;;;;2.60;1.60;;;;;;;15.20;78.85;100605.72;5052270;28;20053;-54
2021/06/21 07:34:53;;;;;;;2.15;1.60;;;;;;;15.16;78.31;100604.69;5055441;28;20072;-53
2021/06/21 07:37:21;;;;;;;3.35;2.03;;;;;;;15.11;78.79;100602.03;5055796;28;20388;-52
2021/06/21 07:39:48;;;;;;;1.48;1.38;;;;;;;15.10;79.29;100601.22;5056588;28;20040;-51
2021/06/21 07:42:16;;;;;;;1.60;1.50;;;;;;;15.23;79.15;100607.84;5055206;28;20565;-51
2021/06/21 07:44:44;;;;;;;2.58;1.83;;;;;;;15.23;78.74;100612.53;5055226;28;20065;-49
2021/06/21 07:47:11;;;;;;;2.22;1.67;;;;;;;15.15;78.43;100616.75;5055243;28;20049;-48
2021/06/21 07:49:39;;;;;;;3.20;1.65;;;;;;;15.26;78.79;100631.94;5055718;28;20499;-51
2021/06/21 07:52:07;;;;;;;3.25;1.70;;;;;;;15.29;78.71;100634.06;5054973;28;20041;-53
2021/06/21 07:54:34;;;;;;;1.42;1.33;;;;;;;15.33;78.77;100626.84;5054754;28;20049;-54
2021/06/21 07:57:02;;;;;;;2.42;1.65;;;;;;;15.32;78.61;100625.22;5055384;28;20532;-55
2021/06/21 07:59:30;;;;;;;2.40;1.65;;;;;;;15.25;78.37;100630.31;5056235;28;20045;-53
2021/06/21 08:01:58;;;;;;;2.40;1.75;;;;;;;15.24;78.74;100628.66;5055552;28;20606;-50
2021/06/21 08:04:25;;;;;;;1.90;1.75;;;;;;;15.23;78.97;100638.03;5055297;28;20049;-56
2021/06/21 08:06:53;;;;;;;2.50;1.77;;;;;;;15.23;79.23;100640.78;5041488;28;20409;-51
2021/06/21 08:09:21;;;;;;;2.00;1.80;;;;;;;15.22;78.83;100641.88;5054875;28;20037;-50
2021/06/21 08:11:48;;;;;;;5.40;1.75;;;;;;;15.21;78.74;100634.78;5054772;28;20489;-50
2021/06/21 08:14:17;;;;;;;2.15;1.92;;;;;;;15.19;79.12;100642.50;5054647;28;20053;-52
2021/06/21 08:16:44;;;;;;;3.10;2.10;;;;;;;15.11;79.15;100648.69;5054687;28;20053;-50
2021/06/21 08:19:12;;;;;;;3.88;2.08;;;;;;;15.17;79.73;100658.44;5054780;28;20044;-51
2021/06/21 08:21:40;;;;;;;2.20;2.00;;;;;;;15.10;79.48;100663.50;5054217;28;20377;-50
2021/06/21 08:24:10;;;;;;;1.95;1.85;;;;;;;15.06;79.92;100671.56;5054802;28;20090;-54
2021/06/21 08:26:38;;;;;;;3.97;2.20;;;;;;;15.17;79.84;100672.16;5054794;28;20660;-52
2021/06/21 08:29:06;;;;;;;2.38;1.75;;;;;;;15.27;80.03;100669.25;5054646;28;20513;-52
2021/06/21 08:31:34;;;;;;;3.63;2.17;;;;;;;15.25;79.19;100679.72;5054055;28;20445;-51
2021/06/21 08:34:02;;;;;;;2.28;2.10;;;;;;;15.14;79.65;100678.28;5054655;28;20520;-52
2021/06/21 08:36:30;;;;;;;2.63;2.20;;;;;;;15.15;79.87;100681.81;5054308;28;20075;-52
2021/06/21 08:38:57;;;;;;;4.75;2.30;;;;;;;15.23;80.31;100684.69;5054623;28;20045;-54
2021/06/21 08:41:25;;;;;;;3.28;2.50;;;;;;;15.36;79.49;100691.31;5055057;28;20095;-51
2021/06/21 08:43:53;;;;;;;2.65;2.05;;;;;;;15.36;79.40;100690.50;5053949;28;20072;-52
2021/06/21 08:46:21;;;;;;;2.80;2.35;;;;;;;15.29;79.29;100688.16;5054655;28;20052;-54
2021/06/21 08:48:49;;;;;;;4.38;1.90;;;;;;;15.20;79.49;100682.56;5054527;28;20044;-49
2021/06/21 08:51:17;;;;;;;3.28;2.28;;;;;;;15.23;80.21;100681.13;5052787;28;20041;-49
2021/06/21 08:53:45;;;;;;;3.95;2.22;;;;;;;15.14;79.78;100678.28;5054632;28;20053;-52
2021/06/21 08:56:12;;;;;;;4.05;2.25;;;;;;;15.17;80.29;100683.16;5050435;28;20045;-49
2021/06/21 08:58:40;;;;;;;1.85;1.70;;;;;;;15.18;80.10;100684.78;5054387;28;20056;-55
2021/06/21 09:01:08;;;;;;;2.38;2.17;;;;;;;15.22;80.24;100695.97;5052567;28;20075;-53
2021/06/21 09:03:45;;;;;;;3.70;2.00;;;;;;;15.31;80.95;100699.66;5053994;28;20057;-52
2021/06/21 09:06:23;;;;;;;2.10;1.90;;;;;;;15.38;80.48;100710.22;5051834;28;20500;-50
2021/06/21 09:08:57;;;;;;;2.67;1.92;;;;;;;15.45;80.03;100710.66;5053866;28;20098;-51
2021/06/21 09:11:51;;;;;;;2.95;2.30;;;;;;;15.37;80.34;100723.16;5053646;28;20049;-49
2021/06/21 09:14:28;;;;;;;3.35;1.95;;;;;;;15.26;80.25;100718.97;4992907;28;20553;-50
2021/06/21 09:17:02;;;;;;;2.30;2.10;;;;;;;15.25;81.00;100722.78;4992691;28;20050;-50
2021/06/21 09:19:31;;;;;;;3.33;2.38;;;;;;;15.29;80.56;100724.63;4992601;28;20081;-50
2021/06/21 09:21:58;;;;;;;7.90;2.00;;;;;;;15.24;80.85;100732.97;4993263;28;20038;-51
2021/06/21 09:24:29;;;;;;;3.42;2.33;;;;;;;15.28;81.36;100741.44;4991824;28;20089;-53
2021/06/21 09:26:59;;;;;;;3.53;2.13;;;;;;;15.18;80.80;100745.16;4991350;28;20081;-53
2021/06/21 09:29:42;;;;;;;2.47;1.90;;;;;;;15.18;81.02;100756.16;4991106;28;20050;-53
2021/06/21 09:32:43;;;;;;;2.40;1.80;;;;;;;15.13;80.99;100753.50;4990992;28;20436;-54
2021/06/21 09:35:31;;;;;;;2.10;1.90;;;;;;;15.11;81.11;100762.00;4990902;28;20047;-56
2021/06/21 09:38:16;;;;;;;2.65;2.10;;;;;;;15.10;81.69;100762.31;4990974;28;20394;-49
2021/06/21 09:40:55;;;;;;;3.92;2.15;;;;;;;15.17;81.25;100751.75;4990782;28;20125;-53
2021/06/21 09:43:23;;;;;;;2.72;2.10;;;;;;;15.20;81.70;100726.47;4990847;28;20038;-59
2021/06/21 09:46:20;;;;;;;3.00;2.13;;;;;;;15.03;81.33;100713.31;4990555;28;20108;-55
2021/06/21 09:48:50;;;;;;;1.98;1.83;;;;;;;14.90;82.66;100706.66;4990626;28;20468;-50
2021/06/21 09:51:29;;;;;;;1.77;1.67;;;;;;;14.86;82.55;100683.69;5019702;28;20052;-53
2021/06/21 09:54:02;;;;;;;3.60;1.77;;;;;;;14.90;82.67;100672.94;5052952;28;20068;-53
2021/06/21 09:56:31;;;;;;;2.08;1.98;;;;;;;14.94;82.56;100675.91;5051895;28;20057;-52
2021/06/21 09:58:58;;;;;;;2.80;1.90;;;;;;;14.84;82.65;100680.44;5051830;28;20052;-53
2021/06/21 10:01:30;;;;;;;1.90;1.80;;;;;;;14.81;82.75;100674.72;5052427;28;20045;-51
2021/06/21 10:03:58;;;;;;;2.28;1.83;;;;;;;14.77;83.61;100669.03;5052073;28;20048;-53
2021/06/21 10:06:37;;;;;;;2.55;2.20;;;;;;;14.81;83.32;100681.03;5052781;28;20041;-51
2021/06/21 10:09:04;;;;;;;2.10;2.00;;;;;;;14.81;82.87;100667.31;5052403;28;20068;-52
2021/06/21 10:11:33;;;;;;;2.63;2.20;;;;;;;14.91;83.46;100686.34;5052163;28;20033;-48
2021/06/21 10:14:09;;;;;;;2.55;2.20;;;;;;;15.00;82.78;100691.16;5052774;28;20912;-51
2021/06/21 10:16:38;;;;;;;3.60;2.65;;;;;;;15.09;82.82;100711.28;5052189;28;20071;-52
2021/06/21 10:19:07;;;;;;;4.05;2.58;;;;;;;15.03;82.00;100734.44;5052530;28;20069;-50
2021/06/21 10:21:37;;;;;;;4.85;2.25;;;;;;;15.09;82.46;100753.25;5052667;28;20047;-53
2021/06/21 10:24:05;;;;;;;2.60;2.40;;;;;;;15.17;82.45;100779.19;5053007;28;20045;-50
2021/06/21 10:26:33;;;;;;;3.13;2.40;;;;;;;15.21;82.17;100783.00;5052797;28;20106;-55
2021/06/21 10:29:01;;;;;;;3.10;2.67;;;;;;;15.30;82.70;100781.19;5052710;28;20079;-53
2021/06/21 10:31:30;;;;;;;4.18;2.90;;;;;;;15.27;81.37;100790.03;5052549;28;20048;-52
2021/06/21 10:33:59;;;;;;;3.55;2.60;;;;;;;15.35;81.82;100785.78;5051082;28;20041;-52
2021/06/21 10:36:46;;;;;;;3.35;2.80;;;;;;;15.45;81.07;100793.03;5051890;28;20041;-54
2021/06/21 10:39:22;;;;;;;3.85;2.70;;;;;;;15.44;81.02;100802.34;5052776;28;20064;-54
2021/06/21 10:42:25;;;;;;;2.90;2.60;;;;;;;15.48;81.27;100811.63;5051899;28;20052;-52
2021/06/21 10:44:56;;;;;;;2.92;2.70;;;;;;;15.47;80.62;100824.56;5009986;28;20046;-52
2021/06/21 10:47:29;;;;;;;5.18;2.90;;;;;;;15.42;80.40;100827.38;5010191;28;20057;-56
2021/06/21 10:50:23;;;;;;;3.58;2.70;;;;;;;15.33;80.16;100835.50;5004288;28;20076;-53
2021/06/21 10:52:51;;;;;;;3.30;2.83;;;;;;;15.32;80.00;100822.88;4932656;29;20558;-52
2021/06/21 10:55:22;;;;;;;3.60;2.65;;;;;;;15.40;80.49;100821.38;4932765;29;20062;-52
2021/06/21 10:58:06;;;;;;;4.63;2.80;;;;;;;15.42;80.11;100823.84;4932739;29;20059;-51
2021/06/21 11:00:45;;;;;;;3.08;2.63;;;;;;;15.48;80.31;100819.88;4933008;29;20051;-53
2021/06/21 11:03:37;;;;;;;3.33;2.90;;;;;;;15.54;81.25;100835.16;4932797;29;20048;-52
2021/06/21 11:06:18;;;;;;;9.38;3.20;;;;;;;15.66;80.78;100848.41;4248752;29;10000046;-52
2021/06/21 11:08:49;;;;;;;5.35;3.20;;;;;;;15.67;79.99;100855.53;4933831;29;20476;-53
2021/06/21 11:11:35;;;;;;;3.20;2.65;;;;;;;15.60;79.88;100855.09;4934485;29;20068;-51
2021/06/21 11:14:09;;;;;;;3.63;2.67;;;;;;;15.58;80.04;100869.13;4934401;29;20048;-51
2021/06/21 11:16:39;;;;;;;3.58;2.97;;;;;;;15.59;79.26;100865.28;4929177;29;20056;-49
2021/06/21 11:19:20;;;;;;;5.45;3.00;;;;;;;15.63;79.43;100863.53;4928976;29;20044;-53
2021/06/21 11:21:59;;;;;;;4.68;3.10;;;;;;;15.75;79.66;100874.91;4940114;29;20055;-54
2021/06/21 11:24:36;;;;;;;5.40;3.20;;;;;;;15.71;80.04;100867.59;4937728;29;20048;-56
2021/06/21 11:27:07;;;;;;;4.72;3.30;;;;;;;15.62;79.35;100874.84;4953357;29;20058;-55
2021/06/21 11:29:43;;;;;;;4.82;3.17;;;;;;;15.59;79.87;100870.78;4987293;28;20065;-53
2021/06/21 11:32:12;;;;;;;;;;;;;;;15.58;79.57;100880.09;5037205;28;20081;-49
2021/06/21 11:34:56;;;;;;;5.40;3.47;;;;;;;15.57;79.00;100874.94;5035372;28;19931;-52
2021/06/21 11:37:35;;;;;;;5.10;2.90;;;;;;;15.64;78.70;100887.16;5036056;28;20049;-56
2021/06/21 11:40:12;;;;;;;6.13;3.22;;;;;;;15.66;78.71;100887.69;5034773;28;20100;-52
2021/06/21 11:42:41;;;;;;;3.67;3.05;;;;;;;15.67;78.45;100903.03;5035981;28;20060;-57